createdAt,value
2018-03-04T00:00:20.096Z,65.55
2018-03-04T00:02:55.641Z,66.05
2018-03-04T00:05:32.359Z,65.35
2018-03-04T00:08:07.840Z,63.05
2018-03-04T00:10:46.003Z,66.35
2018-03-04T00:13:25.796Z,64.03
2018-03-04T00:16:03.931Z,62.67
2018-03-04T00:18:39.232Z,65.10
2018-03-04T00:21:18.060Z,63.65
2018-03-04T00:23:54.906Z,65.40
2018-03-04T00:26:30.723Z,66.40
2018-03-04T00:29:05.836Z,65.70
2018-03-04T00:31:42.520Z,65.12
2018-03-04T00:34:17.965Z,68.47
2018-03-04T00:36:55.556Z,63.17
2018-03-04T00:39:32.121Z,63.35
2018-03-04T00:42:08.050Z,65.35
2018-03-04T00:44:45.302Z,71.40
2018-03-04T00:47:22.883Z,68.40
2018-03-04T00:49:59.091Z,66.05
2018-03-04T00:52:41.776Z,62.17
2018-03-04T00:55:17.540Z,59.33
2018-03-04T00:57:53.313Z,65.78
2018-03-04T01:00:30.546Z,62.47
2018-03-04T01:03:05.904Z,62.15
2018-03-04T01:05:41.719Z,64.43
2018-03-04T01:08:20.809Z,67.00
2018-03-04T01:10:59.433Z,64.15
2018-03-04T01:13:35.794Z,66.15
2018-03-04T01:16:12.637Z,63.70
2018-03-04T01:18:51.120Z,74.25
2018-03-04T01:21:28.790Z,66.00
2018-03-04T01:24:07.121Z,66.32
2018-03-04T01:26:43.275Z,68.20
2018-03-04T01:29:19.642Z,68.80
2018-03-04T01:31:58.571Z,65.25
2018-03-04T01:34:35.965Z,71.55
2018-03-04T01:37:13.111Z,63.22
2018-03-04T01:39:48.425Z,70.43
2018-03-04T01:42:24.643Z,69.10
2018-03-04T01:45:01.536Z,68.32
2018-03-04T01:47:38.252Z,67.35
2018-03-04T01:50:12.998Z,65.50
2018-03-04T01:52:49.841Z,67.60
2018-03-04T01:55:26.521Z,63.70
2018-03-04T01:58:01.790Z,69.50
2018-03-04T02:00:39.242Z,67.05
2018-03-04T02:03:15.356Z,63.85
2018-03-04T02:05:51.006Z,69.68
2018-03-04T02:08:31.353Z,61.60
2018-03-04T02:11:07.264Z,70.55
2018-03-04T02:13:42.753Z,69.47
2018-03-04T02:16:19.889Z,65.62
2018-03-04T02:18:58.030Z,67.87
2018-03-04T02:21:33.382Z,67.97
2018-03-04T02:24:09.466Z,67.05
2018-03-04T02:26:46.094Z,73.00
2018-03-04T02:29:23.688Z,70.35
2018-03-04T02:31:58.981Z,64.25
2018-03-04T02:34:38.228Z,68.82
2018-03-04T02:37:13.492Z,68.18
2018-03-04T02:39:50.270Z,60.05
2018-03-04T02:42:32.543Z,68.57
2018-03-04T02:45:09.821Z,69.15
2018-03-04T02:47:46.564Z,69.70
2018-03-04T02:50:23.685Z,71.15
2018-03-04T02:53:00.711Z,69.68
2018-03-04T02:55:37.561Z,71.18
2018-03-04T02:58:15.187Z,71.68
2018-03-04T03:00:52.776Z,71.12
2018-03-04T03:03:30.681Z,66.32
2018-03-04T03:06:07.123Z,68.90
2018-03-04T03:08:43.750Z,65.62
2018-03-04T03:11:21.229Z,74.07
2018-03-04T03:14:00.437Z,73.35
2018-03-04T03:16:37.266Z,70.20
2018-03-04T03:19:15.790Z,69.15
2018-03-04T03:21:51.595Z,68.55
2018-03-04T03:24:26.686Z,71.20
2018-03-04T03:27:04.147Z,68.45
2018-03-04T03:29:42.236Z,64.78
2018-03-04T03:32:19.470Z,72.68
2018-03-04T03:35:01.964Z,69.30
2018-03-04T03:37:39.137Z,72.85
2018-03-04T03:40:22.014Z,71.82
2018-03-04T03:42:59.006Z,69.62
2018-03-04T03:45:34.648Z,68.35
2018-03-04T03:48:09.616Z,71.43
2018-03-04T03:50:47.423Z,75.57
2018-03-04T03:53:24.619Z,70.30
2018-03-04T03:56:01.489Z,70.78
2018-03-04T03:58:36.885Z,70.68
2018-03-04T04:01:13.466Z,70.05
2018-03-04T04:03:49.240Z,70.72
2018-03-04T04:06:26.156Z,72.43
2018-03-04T04:09:01.853Z,75.22
2018-03-04T04:11:40.575Z,73.20
2018-03-04T04:14:18.348Z,64.62
2018-03-04T04:17:00.819Z,68.10
2018-03-04T04:19:35.889Z,64.03
2018-03-04T04:22:12.457Z,73.10
2018-03-04T04:24:47.786Z,69.20
2018-03-04T04:27:24.526Z,70.12
2018-03-04T04:30:06.816Z,67.45
2018-03-04T04:32:41.976Z,68.50
2018-03-04T04:35:18.312Z,69.18
2018-03-04T04:37:59.383Z,70.95
2018-03-04T04:40:35.042Z,71.70
2018-03-04T04:43:10.653Z,66.43
2018-03-04T04:45:46.123Z,70.12
2018-03-04T04:48:21.776Z,77.12
2018-03-04T04:50:59.072Z,72.18
2018-03-04T04:53:36.794Z,73.10
2018-03-04T04:56:13.595Z,68.90
2018-03-04T04:58:57.643Z,67.40
2018-03-04T05:01:34.500Z,68.68
2018-03-04T05:04:10.492Z,72.15
2018-03-04T05:06:45.703Z,69.03
2018-03-04T05:09:22.401Z,70.82
2018-03-04T05:11:59.104Z,68.62
2018-03-04T05:14:35.522Z,71.47
2018-03-04T05:17:12.549Z,73.32
2018-03-04T05:19:50.657Z,73.28
2018-03-04T05:22:33.236Z,72.15
2018-03-04T05:25:11.703Z,70.32
2018-03-04T05:27:48.087Z,74.62
2018-03-04T05:30:25.016Z,65.68
2018-03-04T05:33:00.993Z,69.50
2018-03-04T05:35:44.174Z,70.07
2018-03-04T05:38:19.972Z,69.82
2018-03-04T05:40:57.060Z,70.68
2018-03-04T05:43:34.698Z,68.15
2018-03-04T05:46:11.266Z,76.30
2018-03-04T05:48:48.162Z,69.85
2018-03-04T05:51:21.985Z,69.15
2018-03-04T05:53:59.056Z,72.37
2018-03-04T05:56:34.414Z,67.80
2018-03-04T05:59:11.551Z,74.62
2018-03-04T06:01:47.520Z,68.95
2018-03-04T06:04:24.219Z,66.72
2018-03-04T06:07:05.878Z,66.75
2018-03-04T06:09:44.251Z,67.10
2018-03-04T06:12:20.720Z,67.18
2018-03-04T06:14:59.540Z,64.93
2018-03-04T06:17:36.612Z,64.40
2018-03-04T06:20:18.177Z,65.85
2018-03-04T06:22:54.879Z,65.55
2018-03-04T06:25:30.944Z,70.57
2018-03-04T06:28:08.889Z,64.62
2018-03-04T06:30:45.435Z,63.25
2018-03-04T06:33:22.181Z,65.62
2018-03-04T06:35:58.923Z,67.43
2018-03-04T06:38:41.297Z,65.12
2018-03-04T06:41:16.979Z,72.10
2018-03-04T06:43:53.641Z,65.60
2018-03-04T06:46:30.679Z,63.25
2018-03-04T06:49:07.611Z,66.87
2018-03-04T06:51:49.852Z,66.35
2018-03-04T06:54:27.309Z,66.03
2018-03-04T06:57:03.097Z,64.22
2018-03-04T06:59:40.463Z,68.28
2018-03-04T07:02:16.445Z,69.18
2018-03-04T07:04:52.248Z,62.90
2018-03-04T07:07:30.706Z,68.30
2018-03-04T07:10:07.911Z,69.07
2018-03-04T07:12:45.989Z,70.47
2018-03-04T07:15:21.987Z,71.93
2018-03-04T07:18:00.980Z,68.18
2018-03-04T07:20:37.363Z,69.93
2018-03-04T07:23:17.207Z,65.60
2018-03-04T07:25:54.194Z,66.82
2018-03-04T07:28:30.716Z,64.78
2018-03-04T07:31:08.756Z,65.85
2018-03-04T07:33:45.831Z,65.57
2018-03-04T07:36:23.089Z,64.70
2018-03-04T07:38:59.835Z,68.10
2018-03-04T07:41:37.001Z,62.05
2018-03-04T07:44:15.424Z,66.35
2018-03-04T07:46:54.385Z,60.97
2018-03-04T07:49:30.508Z,60.00
2018-03-04T07:52:06.574Z,56.75
2018-03-04T07:54:45.067Z,54.58
2018-03-04T07:57:22.610Z,56.35
2018-03-04T08:00:02.370Z,58.33
2018-03-04T08:02:39.851Z,59.40
2018-03-04T08:05:19.246Z,58.25
2018-03-04T08:07:57.380Z,62.47
2018-03-04T08:10:34.570Z,61.70
2018-03-04T08:13:10.364Z,57.15
2018-03-04T08:15:47.691Z,58.00
2018-03-04T08:18:23.824Z,54.20
2018-03-04T08:21:02.966Z,59.42
2018-03-04T08:23:39.085Z,59.50
2018-03-04T08:26:25.818Z,55.75
2018-03-04T08:28:55.485Z,60.67
2018-03-04T08:31:32.266Z,56.42
2018-03-04T08:34:14.162Z,57.33
2018-03-04T08:36:50.455Z,53.95
2018-03-04T08:39:27.620Z,54.85
2018-03-04T08:42:09.831Z,54.83
2018-03-04T08:44:48.134Z,54.25
2018-03-04T08:47:27.031Z,51.47
2018-03-04T08:50:02.767Z,54.70
2018-03-04T08:52:38.149Z,52.00
2018-03-04T08:55:15.605Z,53.28
2018-03-04T08:57:52.902Z,50.20
2018-03-04T09:00:29.916Z,50.95
2018-03-04T09:03:05.228Z,53.65
2018-03-04T09:05:40.897Z,48.95
2018-03-04T09:08:17.850Z,51.75
2018-03-04T09:10:54.723Z,50.22
2018-03-04T09:13:30.783Z,49.40
2018-03-04T09:16:06.022Z,51.10
2018-03-04T09:18:43.126Z,47.25
2018-03-04T09:21:21.517Z,53.08
2018-03-04T09:23:58.797Z,52.45
2018-03-04T09:26:34.112Z,51.60
2018-03-04T09:29:11.233Z,48.90
2018-03-04T09:31:49.363Z,48.58
2018-03-04T09:34:25.808Z,49.50
2018-03-04T09:37:02.652Z,47.03
2018-03-04T09:39:39.474Z,49.83
2018-03-04T09:42:16.119Z,49.15
2018-03-04T09:44:51.706Z,45.00
2018-03-04T09:47:28.514Z,44.05
2018-03-04T09:50:06.713Z,41.85
2018-03-04T09:52:44.693Z,43.80
2018-03-04T09:55:21.920Z,45.03
2018-03-04T09:57:58.944Z,45.35
2018-03-04T10:00:35.350Z,45.80
2018-03-04T10:03:12.726Z,41.80
2018-03-04T10:05:53.084Z,41.60
2018-03-04T10:08:31.422Z,43.70
2018-03-04T10:11:07.779Z,42.97
2018-03-04T10:13:44.009Z,40.17
2018-03-04T10:16:20.455Z,38.30
2018-03-04T10:19:03.051Z,41.50
2018-03-04T10:21:38.971Z,43.95
2018-03-04T10:24:16.337Z,38.28
2018-03-04T10:26:58.213Z,39.20
2018-03-04T10:29:34.614Z,38.70
2018-03-04T10:32:14.838Z,39.72
2018-03-04T10:34:54.293Z,37.88
2018-03-04T10:37:30.345Z,40.00
2018-03-04T10:40:07.637Z,43.47
2018-03-04T10:42:45.595Z,41.53
2018-03-04T10:45:21.186Z,39.63
2018-03-04T10:47:56.718Z,40.55
2018-03-04T10:50:35.142Z,39.85
2018-03-04T10:53:11.794Z,37.08
2018-03-04T10:55:53.797Z,38.13
2018-03-04T10:58:31.277Z,38.08
2018-03-04T11:01:10.448Z,37.97
2018-03-04T11:03:40.547Z,39.28
2018-03-04T11:06:18.963Z,37.25
2018-03-04T11:08:55.047Z,36.63
2018-03-04T11:11:31.770Z,36.67
2018-03-04T11:14:10.092Z,35.35
2018-03-04T11:16:45.585Z,35.47
2018-03-04T11:19:22.638Z,37.88
2018-03-04T11:21:59.247Z,36.30
2018-03-04T11:24:35.393Z,39.42
2018-03-04T11:27:14.871Z,33.65
2018-03-04T11:29:53.426Z,33.38
2018-03-04T11:32:30.192Z,38.08
2018-03-04T11:35:08.823Z,40.28
2018-03-04T11:40:12.649Z,36.75
2018-03-04T11:42:51.087Z,36.75
2018-03-04T11:45:28.330Z,37.67
2018-03-04T11:48:05.830Z,37.72
2018-03-04T11:50:42.639Z,36.28
2018-03-04T11:53:24.904Z,33.97
2018-03-04T11:56:02.454Z,34.70
2018-03-04T11:58:40.374Z,37.17
2018-03-04T12:01:17.768Z,38.40
2018-03-04T12:03:55.024Z,38.67
2018-03-04T12:06:31.283Z,35.10
2018-03-04T12:09:10.206Z,35.17
2018-03-04T12:11:46.680Z,35.83
2018-03-04T12:14:23.049Z,32.55
2018-03-04T12:17:01.809Z,34.17
2018-03-04T12:19:38.643Z,30.37
2018-03-04T12:22:09.886Z,32.95
2018-03-04T12:24:49.213Z,34.60
2018-03-04T12:27:29.083Z,34.35
2018-03-04T12:30:05.559Z,32.35
2018-03-04T12:32:42.586Z,33.40
2018-03-04T12:35:20.632Z,30.52
2018-03-04T12:37:56.217Z,32.03
2018-03-04T12:40:31.780Z,29.90
2018-03-04T12:43:09.573Z,36.38
2018-03-04T12:45:46.512Z,30.00
2018-03-04T12:48:23.469Z,28.98
2018-03-04T12:51:01.897Z,29.98
2018-03-04T12:53:39.207Z,28.65
2018-03-04T12:56:16.367Z,25.88
2018-03-04T12:58:55.165Z,23.30
2018-03-04T13:01:32.107Z,24.20
2018-03-04T13:04:09.657Z,24.25
2018-03-04T13:06:48.679Z,23.90
2018-03-04T13:09:28.047Z,25.55
2018-03-04T13:12:03.906Z,27.52
2018-03-04T13:14:38.782Z,24.35
2018-03-04T13:17:16.330Z,24.50
2018-03-04T13:19:51.617Z,24.90
2018-03-04T13:22:31.997Z,25.20
2018-03-04T13:25:09.620Z,26.58
2018-03-04T13:27:47.868Z,25.40
2018-03-04T13:30:23.839Z,26.90
2018-03-04T13:33:01.935Z,27.10
2018-03-04T13:35:40.007Z,26.20
2018-03-04T13:38:16.119Z,26.98
2018-03-04T13:40:53.042Z,30.27
2018-03-04T13:43:29.379Z,27.00
2018-03-04T13:46:14.027Z,27.58
2018-03-04T13:48:52.492Z,27.30
2018-03-04T13:51:34.587Z,26.65
2018-03-04T13:54:14.541Z,28.33
2018-03-04T13:56:51.332Z,27.50
2018-03-04T13:59:33.952Z,29.50
2018-03-04T14:02:14.497Z,27.45
2018-03-04T14:04:50.596Z,29.10
2018-03-04T14:07:28.022Z,26.23
2018-03-04T14:10:07.907Z,27.10
2018-03-04T14:12:44.520Z,26.62
2018-03-04T14:15:22.463Z,25.02
2018-03-04T14:17:58.372Z,25.98
2018-03-04T14:20:36.143Z,27.13
2018-03-04T14:23:16.371Z,26.50
2018-03-04T14:25:53.244Z,25.52
2018-03-04T14:28:31.261Z,24.17
2018-03-04T14:31:10.717Z,24.58
2018-03-04T14:33:48.196Z,24.75
2018-03-04T14:36:26.894Z,25.15
2018-03-04T14:39:05.640Z,26.60
2018-03-04T14:41:44.288Z,27.70
2018-03-04T14:44:20.881Z,26.60
2018-03-04T14:46:59.672Z,27.00
2018-03-04T14:49:37.970Z,25.88
2018-03-04T14:52:13.209Z,27.83
2018-03-04T14:54:48.642Z,25.45
2018-03-04T14:57:26.938Z,26.23
2018-03-04T15:00:02.659Z,24.50
2018-03-04T15:02:38.241Z,26.95
2018-03-04T15:05:14.310Z,24.48
2018-03-04T15:07:52.887Z,25.85
2018-03-04T15:10:30.165Z,25.75
2018-03-04T15:13:07.068Z,27.52
2018-03-04T15:15:44.080Z,24.35
2018-03-04T15:18:21.152Z,25.15
2018-03-04T15:20:59.174Z,25.85
2018-03-04T15:23:35.888Z,24.80
2018-03-04T15:26:12.515Z,28.00
2018-03-04T15:28:49.259Z,25.62
2018-03-04T15:31:24.324Z,27.42
2018-03-04T15:34:00.124Z,25.37
2018-03-04T15:36:36.847Z,25.33
2018-03-04T15:39:15.879Z,25.70
2018-03-04T15:41:55.183Z,25.02
2018-03-04T15:44:31.267Z,25.02
2018-03-04T15:47:13.611Z,28.12
2018-03-04T15:49:52.739Z,24.35
2018-03-04T15:52:30.728Z,25.60
2018-03-04T15:55:07.083Z,24.50
2018-03-04T15:57:43.497Z,27.50
2018-03-04T16:00:22.546Z,26.90
2018-03-04T16:02:59.372Z,24.73
2018-03-04T16:05:36.018Z,23.45
2018-03-04T16:08:11.918Z,28.92
2018-03-04T16:10:49.653Z,25.20
2018-03-04T16:13:29.869Z,24.50
2018-03-04T16:16:06.882Z,23.80
2018-03-04T16:18:48.958Z,27.77
2018-03-04T16:21:26.682Z,25.62
2018-03-04T16:24:03.729Z,26.37
2018-03-04T16:26:38.871Z,26.73
2018-03-04T16:29:18.367Z,24.90
2018-03-04T16:31:55.701Z,24.67
2018-03-04T16:34:32.655Z,26.65
2018-03-04T16:37:15.889Z,25.05
2018-03-04T16:39:55.661Z,23.83
2018-03-04T16:42:33.189Z,23.87
2018-03-04T16:45:11.799Z,25.00
2018-03-04T16:47:48.546Z,24.40
2018-03-04T16:50:28.013Z,22.77
2018-03-04T16:53:04.501Z,26.17
2018-03-04T16:55:41.223Z,25.33
2018-03-04T16:58:17.144Z,26.20
2018-03-04T17:00:54.347Z,26.85
2018-03-04T17:03:34.328Z,26.48
2018-03-04T17:06:12.683Z,24.83
2018-03-04T17:08:48.479Z,25.85
2018-03-04T17:11:25.293Z,28.35
2018-03-04T17:14:00.849Z,28.35
2018-03-04T17:16:39.098Z,26.67
2018-03-04T17:19:17.766Z,28.80
2018-03-04T17:21:53.311Z,28.30
2018-03-04T17:24:28.721Z,32.72
2018-03-04T17:27:07.224Z,28.87
2018-03-04T17:29:44.576Z,27.20
2018-03-04T17:32:21.284Z,28.52
2018-03-04T17:34:57.166Z,27.75
2018-03-04T17:37:32.900Z,28.98
2018-03-04T17:40:09.243Z,28.85
2018-03-04T17:42:46.123Z,23.98
2018-03-04T17:45:22.143Z,27.00
2018-03-04T17:47:58.183Z,29.75
2018-03-04T17:50:35.669Z,25.48
2018-03-04T17:53:14.206Z,27.55
2018-03-04T17:55:50.293Z,26.95
2018-03-04T17:58:27.763Z,27.25
2018-03-04T18:01:04.909Z,26.87
2018-03-04T18:03:41.117Z,31.42
2018-03-04T18:06:20.259Z,31.25
2018-03-04T18:08:57.236Z,27.83
2018-03-04T18:11:35.300Z,29.33
2018-03-04T18:14:12.596Z,31.37
2018-03-04T18:16:48.380Z,29.00
2018-03-04T18:19:27.545Z,27.80
2018-03-04T18:22:05.909Z,28.15
2018-03-04T18:24:42.531Z,27.80
2018-03-04T18:27:19.400Z,27.85
2018-03-04T18:29:57.589Z,29.55
2018-03-04T18:32:34.554Z,31.37
2018-03-04T18:35:11.583Z,30.10
2018-03-04T18:37:49.749Z,31.85
2018-03-04T18:40:28.336Z,37.25
2018-03-04T18:43:05.549Z,35.78
2018-03-04T18:45:43.160Z,36.55
2018-03-04T18:48:23.157Z,37.78
2018-03-04T18:51:00.397Z,38.95
2018-03-04T18:53:38.042Z,35.80
2018-03-04T18:56:15.250Z,39.15
2018-03-04T18:58:55.740Z,38.65
2018-03-04T19:01:33.711Z,37.95
2018-03-04T19:04:10.381Z,41.92
2018-03-04T19:06:50.554Z,40.03
2018-03-04T19:09:28.145Z,41.28
2018-03-04T19:12:05.999Z,39.95
2018-03-04T19:14:41.239Z,42.13
2018-03-04T19:17:18.269Z,40.17
2018-03-04T19:19:55.563Z,41.50
2018-03-04T19:22:34.407Z,43.22
2018-03-04T19:25:12.156Z,41.00
2018-03-04T19:27:49.274Z,44.20
2018-03-04T19:30:25.305Z,40.50
2018-03-04T19:33:02.085Z,41.95
2018-03-04T19:35:39.052Z,41.20
2018-03-04T19:38:16.885Z,41.00
2018-03-04T19:40:54.711Z,44.28
2018-03-04T19:43:32.186Z,41.00
2018-03-04T19:46:13.927Z,36.28
2018-03-04T19:48:50.698Z,43.05
2018-03-04T19:51:26.951Z,42.25
2018-03-04T19:54:03.886Z,40.05
2018-03-04T19:56:41.680Z,43.87
2018-03-04T19:59:23.426Z,40.78
2018-03-04T20:01:59.878Z,41.40
2018-03-04T20:04:36.925Z,39.58
2018-03-04T20:07:13.905Z,44.28
2018-03-04T20:09:51.679Z,40.97
2018-03-04T20:12:30.433Z,44.47
2018-03-04T20:15:08.624Z,44.45
2018-03-04T20:17:49.140Z,42.55
2018-03-04T20:20:29.589Z,43.17
2018-03-04T20:23:06.808Z,46.67
2018-03-04T20:25:45.015Z,46.08
2018-03-04T20:28:21.227Z,46.72
2018-03-04T20:30:57.683Z,45.12
2018-03-04T20:33:33.476Z,48.28
2018-03-04T20:36:08.703Z,50.50
2018-03-04T20:38:44.390Z,48.28
2018-03-04T20:41:24.048Z,45.80
2018-03-04T20:43:59.482Z,46.78
2018-03-04T20:46:36.784Z,47.60
2018-03-04T20:49:12.331Z,48.05
2018-03-04T20:51:50.237Z,46.60
2018-03-04T20:54:28.387Z,50.28
2018-03-04T20:57:05.623Z,49.53
2018-03-04T20:59:44.163Z,46.17
2018-03-04T21:02:22.199Z,40.20
2018-03-04T21:05:09.619Z,43.25
2018-03-04T21:07:46.189Z,36.95
2018-03-04T21:10:23.498Z,36.13
2018-03-04T21:13:01.736Z,33.78
2018-03-04T21:15:38.224Z,33.90
2018-03-04T21:18:15.633Z,32.78
2018-03-04T21:20:53.329Z,30.90
2018-03-04T21:23:30.919Z,29.95
2018-03-04T21:26:08.340Z,33.50
2018-03-04T21:28:44.712Z,29.23
2018-03-04T21:31:23.978Z,30.77
2018-03-04T21:33:59.564Z,26.73
2018-03-04T21:36:35.901Z,26.27
2018-03-04T21:39:12.460Z,20.62
2018-03-04T21:41:49.546Z,20.00
2018-03-04T21:44:26.405Z,17.92
2018-03-04T21:47:03.721Z,15.30
2018-03-04T21:49:44.586Z,14.73
2018-03-04T21:52:21.578Z,11.18
2018-03-04T21:55:00.109Z,13.40
2018-03-04T21:57:32.542Z,13.25
2018-03-04T22:00:11.725Z,12.85
2018-03-04T22:02:51.128Z,13.18
2018-03-04T22:05:29.357Z,12.73
2018-03-04T22:08:05.757Z,12.10
2018-03-04T22:10:44.664Z,10.77
2018-03-04T22:13:26.662Z,10.15
2018-03-04T22:16:04.461Z,10.77
2018-03-04T22:18:43.274Z,12.20
2018-03-04T22:21:21.577Z,11.50
2018-03-04T22:23:57.833Z,11.35
2018-03-04T22:26:36.683Z,10.82
2018-03-04T22:29:16.816Z,10.20
2018-03-04T22:31:54.563Z,11.10
2018-03-04T22:34:32.596Z,11.10
2018-03-04T22:37:09.279Z,10.88
2018-03-04T22:39:45.367Z,10.30
2018-03-04T22:42:21.459Z,10.40
2018-03-04T22:44:57.990Z,9.80
2018-03-04T22:47:35.551Z,9.70
2018-03-04T22:50:17.205Z,10.02
2018-03-04T22:52:53.766Z,10.18
2018-03-04T22:55:30.573Z,11.30
2018-03-04T22:58:07.348Z,10.60
2018-03-04T23:00:47.065Z,9.15
2018-03-04T23:03:23.689Z,9.07
2018-03-04T23:06:00.660Z,9.82
2018-03-04T23:08:41.265Z,9.52
2018-03-04T23:11:19.967Z,8.15
2018-03-04T23:13:58.158Z,8.85
2018-03-04T23:16:37.604Z,7.95
2018-03-04T23:19:15.703Z,9.55
2018-03-04T23:21:53.790Z,8.73
2018-03-04T23:24:32.247Z,8.38
2018-03-04T23:27:09.838Z,9.27
2018-03-04T23:29:47.649Z,8.50
2018-03-04T23:32:25.207Z,8.50
2018-03-04T23:35:04.431Z,8.65
2018-03-04T23:37:41.893Z,8.77
2018-03-04T23:40:17.642Z,8.13
2018-03-04T23:42:53.683Z,7.50
2018-03-04T23:45:29.442Z,8.07
2018-03-04T23:48:05.099Z,7.68
2018-03-04T23:50:41.426Z,8.15
2018-03-04T23:53:17.900Z,7.25
2018-03-04T23:55:55.010Z,6.82
2018-03-04T23:58:36.790Z,7.40
